sensor_id;sensor_type;location;lat;lon;timestamp;P1;durP1;ratioP1;P2;durP2;ratioP2
16524;SDS011;8375;33.594;-117.718;2023-06-14T00:00:19;3.95;;;1.80;;
16524;SDS011;8375;33.594;-117.718;2023-06-14T00:02:51;2.97;;;1.77;;
16524;SDS011;8375;33.594;-117.718;2023-06-14T00:05:21;2.13;;;1.80;;
16524;SDS011;8375;33.594;-117.718;2023-06-14T00:07:50;2.08;;;1.75;;
16524;SDS011;8375;33.594;-117.718;2023-06-14T00:10:20;2.47;;;1.65;;
16524;SDS011;8375;33.594;-117.718;2023-06-14T00:12:48;3.27;;;1.47;;
16524;SDS011;8375;33.594;-117.718;2023-06-14T00:15:17;3.28;;;1.70;;
16524;SDS011;8375;33.594;-117.718;2023-06-14T00:17:46;3.17;;;2.00;;
16524;SDS011;8375;33.594;-117.718;2023-06-14T00:20:17;3.33;;;1.60;;
16524;SDS011;8375;33.594;-117.718;2023-06-14T00:22:46;1.97;;;1.70;;
16524;SDS011;8375;33.594;-117.718;2023-06-14T00:25:15;4.90;;;1.97;;
16524;SDS011;8375;33.594;-117.718;2023-06-14T00:27:44;2.80;;;1.77;;
16524;SDS011;8375;33.594;-117.718;2023-06-14T00:30:13;3.00;;;1.60;;
16524;SDS011;8375;33.594;-117.718;2023-06-14T00:32:42;3.53;;;1.60;;
16524;SDS011;8375;33.594;-117.718;2023-06-14T00:35:11;4.20;;;1.80;;
16524;SDS011;8375;33.594;-117.718;2023-06-14T00:37:42;2.27;;;1.90;;
16524;SDS011;8375;33.594;-117.718;2023-06-14T00:40:11;2.17;;;1.60;;
16524;SDS011;8375;33.594;-117.718;2023-06-14T00:42:39;1.60;;;1.50;;
16524;SDS011;8375;33.594;-117.718;2023-06-14T00:45:09;2.20;;;1.47;;
16524;SDS011;8375;33.594;-117.718;2023-06-14T00:47:38;3.50;;;1.57;;
16524;SDS011;8375;33.594;-117.718;2023-06-14T00:50:08;4.63;;;1.80;;
16524;SDS011;8375;33.594;-117.718;2023-06-14T00:52:37;2.27;;;1.87;;
16524;SDS011;8375;33.594;-117.718;2023-06-14T00:55:08;1.93;;;1.40;;
16524;SDS011;8375;33.594;-117.718;2023-06-14T00:57:37;2.20;;;1.83;;
16524;SDS011;8375;33.594;-117.718;2023-06-14T01:00:08;2.43;;;1.57;;
16524;SDS011;8375;33.594;-117.718;2023-06-14T01:02:37;9.40;;;1.90;;
16524;SDS011;8375;33.594;-117.718;2023-06-14T01:05:06;2.80;;;1.70;;
16524;SDS011;8375;33.594;-117.718;2023-06-14T01:07:41;2.07;;;1.50;;
16524;SDS011;8375;33.594;-117.718;2023-06-14T01:10:28;2.83;;;1.47;;
16524;SDS011;8375;33.594;-117.718;2023-06-14T01:13:05;2.00;;;1.70;;
16524;SDS011;8375;33.594;-117.718;2023-06-14T01:15:39;1.60;;;1.30;;
16524;SDS011;8375;33.594;-117.718;2023-06-14T01:18:08;2.23;;;1.70;;
16524;SDS011;8375;33.594;-117.718;2023-06-14T01:20:45;2.00;;;1.47;;
16524;SDS011;8375;33.594;-117.718;2023-06-14T01:23:18;1.80;;;1.47;;
16524;SDS011;8375;33.594;-117.718;2023-06-14T01:25:48;2.03;;;1.57;;
16524;SDS011;8375;33.594;-117.718;2023-06-14T01:28:18;3.53;;;1.47;;
16524;SDS011;8375;33.594;-117.718;2023-06-14T01:30:48;3.07;;;1.50;;
16524;SDS011;8375;33.594;-117.718;2023-06-14T01:33:22;4.37;;;1.90;;
16524;SDS011;8375;33.594;-117.718;2023-06-14T01:35:55;3.13;;;1.60;;
16524;SDS011;8375;33.594;-117.718;2023-06-14T01:38:27;2.83;;;1.60;;
16524;SDS011;8375;33.594;-117.718;2023-06-14T01:40:58;2.80;;;1.50;;
16524;SDS011;8375;33.594;-117.718;2023-06-14T01:43:28;3.67;;;1.70;;
16524;SDS011;8375;33.594;-117.718;2023-06-14T01:45:58;3.27;;;1.80;;
16524;SDS011;8375;33.594;-117.718;2023-06-14T01:48:29;2.97;;;1.77;;
16524;SDS011;8375;33.594;-117.718;2023-06-14T01:50:58;3.60;;;2.00;;
16524;SDS011;8375;33.594;-117.718;2023-06-14T01:53:28;2.73;;;1.80;;
16524;SDS011;8375;33.594;-117.718;2023-06-14T01:55:57;3.37;;;1.57;;
16524;SDS011;8375;33.594;-117.718;2023-06-14T01:58:26;5.03;;;2.20;;
16524;SDS011;8375;33.594;-117.718;2023-06-14T02:00:55;3.83;;;1.93;;
16524;SDS011;8375;33.594;-117.718;2023-06-14T02:03:24;2.10;;;1.90;;
16524;SDS011;8375;33.594;-117.718;2023-06-14T02:05:53;4.07;;;2.00;;
16524;SDS011;8375;33.594;-117.718;2023-06-14T02:08:21;3.37;;;1.80;;
16524;SDS011;8375;33.594;-117.718;2023-06-14T02:10:52;3.23;;;1.87;;
16524;SDS011;8375;33.594;-117.718;2023-06-14T02:13:21;2.60;;;1.87;;
16524;SDS011;8375;33.594;-117.718;2023-06-14T02:15:49;4.07;;;1.97;;
16524;SDS011;8375;33.594;-117.718;2023-06-14T02:18:20;3.27;;;1.90;;
16524;SDS011;8375;33.594;-117.718;2023-06-14T02:20:48;3.37;;;1.80;;
16524;SDS011;8375;33.594;-117.718;2023-06-14T02:23:17;4.30;;;1.77;;
16524;SDS011;8375;33.594;-117.718;2023-06-14T02:25:46;2.57;;;1.53;;
16524;SDS011;8375;33.594;-117.718;2023-06-14T02:28:17;3.50;;;2.00;;
16524;SDS011;8375;33.594;-117.718;2023-06-14T02:30:46;4.33;;;2.20;;
16524;SDS011;8375;33.594;-117.718;2023-06-14T02:33:15;4.27;;;2.27;;
16524;SDS011;8375;33.594;-117.718;2023-06-14T02:35:43;2.77;;;2.40;;
16524;SDS011;8375;33.594;-117.718;2023-06-14T02:38:13;3.77;;;2.37;;
16524;SDS011;8375;33.594;-117.718;2023-06-14T02:40:42;3.40;;;2.00;;
16524;SDS011;8375;33.594;-117.718;2023-06-14T02:43:11;3.50;;;2.40;;
16524;SDS011;8375;33.594;-117.718;2023-06-14T02:45:42;5.60;;;2.50;;
16524;SDS011;8375;33.594;-117.718;2023-06-14T02:48:15;3.30;;;2.13;;
16524;SDS011;8375;33.594;-117.718;2023-06-14T02:50:44;6.47;;;2.20;;
16524;SDS011;8375;33.594;-117.718;2023-06-14T02:53:13;7.33;;;2.40;;
16524;SDS011;8375;33.594;-117.718;2023-06-14T02:55:41;4.57;;;2.27;;
16524;SDS011;8375;33.594;-117.718;2023-06-14T02:58:14;6.87;;;2.00;;
16524;SDS011;8375;33.594;-117.718;2023-06-14T03:00:45;3.83;;;2.30;;
16524;SDS011;8375;33.594;-117.718;2023-06-14T03:03:16;3.47;;;2.10;;
16524;SDS011;8375;33.594;-117.718;2023-06-14T03:05:50;3.27;;;2.33;;
16524;SDS011;8375;33.594;-117.718;2023-06-14T03:08:20;2.30;;;2.10;;
16524;SDS011;8375;33.594;-117.718;2023-06-14T03:10:52;3.87;;;1.90;;
16524;SDS011;8375;33.594;-117.718;2023-06-14T03:13:26;4.13;;;2.10;;
16524;SDS011;8375;33.594;-117.718;2023-06-14T03:16:01;4.80;;;2.30;;
16524;SDS011;8375;33.594;-117.718;2023-06-14T03:18:31;3.50;;;2.20;;
16524;SDS011;8375;33.594;-117.718;2023-06-14T03:21:04;3.37;;;2.23;;
16524;SDS011;8375;33.594;-117.718;2023-06-14T03:23:34;2.80;;;2.00;;
16524;SDS011;8375;33.594;-117.718;2023-06-14T03:26:07;3.50;;;1.97;;
16524;SDS011;8375;33.594;-117.718;2023-06-14T03:28:38;5.83;;;2.17;;
16524;SDS011;8375;33.594;-117.718;2023-06-14T03:31:10;3.20;;;2.10;;
16524;SDS011;8375;33.594;-117.718;2023-06-14T03:33:40;3.33;;;1.87;;
16524;SDS011;8375;33.594;-117.718;2023-06-14T03:36:10;2.43;;;2.10;;
16524;SDS011;8375;33.594;-117.718;2023-06-14T03:38:41;2.57;;;1.97;;
16524;SDS011;8375;33.594;-117.718;2023-06-14T03:41:10;5.03;;;1.90;;
16524;SDS011;8375;33.594;-117.718;2023-06-14T03:43:39;2.70;;;1.90;;
16524;SDS011;8375;33.594;-117.718;2023-06-14T03:46:10;4.67;;;2.07;;
16524;SDS011;8375;33.594;-117.718;2023-06-14T03:48:39;3.93;;;2.00;;
16524;SDS011;8375;33.594;-117.718;2023-06-14T03:51:08;3.63;;;2.10;;
16524;SDS011;8375;33.594;-117.718;2023-06-14T03:53:38;2.10;;;1.87;;
16524;SDS011;8375;33.594;-117.718;2023-06-14T03:56:07;3.13;;;1.90;;
16524;SDS011;8375;33.594;-117.718;2023-06-14T03:58:36;3.03;;;2.17;;
16524;SDS011;8375;33.594;-117.718;2023-06-14T04:01:05;4.20;;;1.90;;
16524;SDS011;8375;33.594;-117.718;2023-06-14T04:03:37;2.20;;;2.00;;
16524;SDS011;8375;33.594;-117.718;2023-06-14T04:06:06;2.30;;;1.87;;
16524;SDS011;8375;33.594;-117.718;2023-06-14T04:08:35;3.97;;;1.90;;
16524;SDS011;8375;33.594;-117.718;2023-06-14T04:11:05;3.57;;;2.67;;
16524;SDS011;8375;33.594;-117.718;2023-06-14T04:13:39;4.80;;;2.27;;
16524;SDS011;8375;33.594;-117.718;2023-06-14T04:16:08;4.30;;;2.10;;
16524;SDS011;8375;33.594;-117.718;2023-06-14T04:18:39;3.50;;;2.30;;
16524;SDS011;8375;33.594;-117.718;2023-06-14T04:21:08;2.50;;;2.30;;
16524;SDS011;8375;33.594;-117.718;2023-06-14T04:23:38;2.53;;;2.00;;
16524;SDS011;8375;33.594;-117.718;2023-06-14T04:26:09;2.87;;;2.50;;
16524;SDS011;8375;33.594;-117.718;2023-06-14T04:28:38;3.30;;;2.00;;
16524;SDS011;8375;33.594;-117.718;2023-06-14T04:31:07;3.53;;;2.00;;
16524;SDS011;8375;33.594;-117.718;2023-06-14T04:33:37;2.93;;;1.90;;
16524;SDS011;8375;33.594;-117.718;2023-06-14T04:36:12;4.33;;;2.47;;
16524;SDS011;8375;33.594;-117.718;2023-06-14T04:38:43;3.57;;;1.97;;
16524;SDS011;8375;33.594;-117.718;2023-06-14T04:41:12;4.10;;;2.37;;
16524;SDS011;8375;33.594;-117.718;2023-06-14T04:43:41;4.23;;;2.20;;
16524;SDS011;8375;33.594;-117.718;2023-06-14T04:46:14;3.43;;;1.93;;
16524;SDS011;8375;33.594;-117.718;2023-06-14T04:48:47;2.50;;;2.27;;
16524;SDS011;8375;33.594;-117.718;2023-06-14T04:51:16;4.87;;;2.10;;
16524;SDS011;8375;33.594;-117.718;2023-06-14T04:53:46;2.37;;;2.17;;
16524;SDS011;8375;33.594;-117.718;2023-06-14T04:56:16;3.43;;;2.20;;
16524;SDS011;8375;33.594;-117.718;2023-06-14T04:58:45;2.83;;;2.20;;
16524;SDS011;8375;33.594;-117.718;2023-06-14T05:01:13;3.23;;;2.60;;
16524;SDS011;8375;33.594;-117.718;2023-06-14T05:03:42;3.47;;;2.37;;
16524;SDS011;8375;33.594;-117.718;2023-06-14T05:06:18;5.30;;;2.40;;
16524;SDS011;8375;33.594;-117.718;2023-06-14T05:08:48;3.43;;;2.43;;
16524;SDS011;8375;33.594;-117.718;2023-06-14T05:11:16;3.57;;;2.60;;
16524;SDS011;8375;33.594;-117.718;2023-06-14T05:13:46;3.17;;;2.43;;
16524;SDS011;8375;33.594;-117.718;2023-06-14T05:16:16;3.67;;;2.50;;
16524;SDS011;8375;33.594;-117.718;2023-06-14T05:18:45;6.00;;;2.60;;
16524;SDS011;8375;33.594;-117.718;2023-06-14T05:21:17;2.37;;;2.07;;
16524;SDS011;8375;33.594;-117.718;2023-06-14T05:23:45;2.70;;;2.30;;
16524;SDS011;8375;33.594;-117.718;2023-06-14T05:26:14;2.67;;;2.47;;
16524;SDS011;8375;33.594;-117.718;2023-06-14T05:28:43;2.80;;;2.50;;
16524;SDS011;8375;33.594;-117.718;2023-06-14T05:31:12;3.30;;;2.50;;
16524;SDS011;8375;33.594;-117.718;2023-06-14T05:33:41;4.13;;;2.60;;
16524;SDS011;8375;33.594;-117.718;2023-06-14T05:36:09;3.97;;;2.80;;
16524;SDS011;8375;33.594;-117.718;2023-06-14T05:38:40;3.27;;;2.50;;
16524;SDS011;8375;33.594;-117.718;2023-06-14T05:41:08;3.50;;;2.10;;
16524;SDS011;8375;33.594;-117.718;2023-06-14T05:43:38;4.63;;;2.90;;
16524;SDS011;8375;33.594;-117.718;2023-06-14T05:46:09;6.07;;;2.93;;
16524;SDS011;8375;33.594;-117.718;2023-06-14T05:48:41;7.17;;;2.67;;
16524;SDS011;8375;33.594;-117.718;2023-06-14T05:51:10;3.17;;;2.30;;
16524;SDS011;8375;33.594;-117.718;2023-06-14T05:53:41;4.83;;;2.40;;
16524;SDS011;8375;33.594;-117.718;2023-06-14T05:56:10;2.70;;;2.10;;
16524;SDS011;8375;33.594;-117.718;2023-06-14T05:58:39;6.20;;;2.90;;
16524;SDS011;8375;33.594;-117.718;2023-06-14T06:01:08;4.23;;;2.33;;
16524;SDS011;8375;33.594;-117.718;2023-06-14T06:03:38;3.03;;;2.43;;
16524;SDS011;8375;33.594;-117.718;2023-06-14T06:06:11;3.93;;;2.73;;
16524;SDS011;8375;33.594;-117.718;2023-06-14T06:08:41;6.07;;;2.90;;
16524;SDS011;8375;33.594;-117.718;2023-06-14T06:11:10;3.63;;;2.67;;
16524;SDS011;8375;33.594;-117.718;2023-06-14T06:13:39;5.23;;;2.80;;
16524;SDS011;8375;33.594;-117.718;2023-06-14T06:16:09;3.70;;;3.00;;
16524;SDS011;8375;33.594;-117.718;2023-06-14T06:18:39;4.43;;;2.40;;
16524;SDS011;8375;33.594;-117.718;2023-06-14T06:21:08;6.47;;;2.80;;
16524;SDS011;8375;33.594;-117.718;2023-06-14T06:23:37;3.70;;;3.10;;
16524;SDS011;8375;33.594;-117.718;2023-06-14T06:26:08;4.60;;;2.90;;
16524;SDS011;8375;33.594;-117.718;2023-06-14T06:28:37;4.20;;;2.60;;
16524;SDS011;8375;33.594;-117.718;2023-06-14T06:31:06;5.57;;;3.07;;
16524;SDS011;8375;33.594;-117.718;2023-06-14T06:33:35;4.10;;;2.83;;
16524;SDS011;8375;33.594;-117.718;2023-06-14T06:36:05;5.37;;;3.03;;
16524;SDS011;8375;33.594;-117.718;2023-06-14T06:38:36;6.00;;;2.60;;
16524;SDS011;8375;33.594;-117.718;2023-06-14T06:41:08;5.03;;;2.80;;
16524;SDS011;8375;33.594;-117.718;2023-06-14T06:43:37;3.67;;;2.60;;
16524;SDS011;8375;33.594;-117.718;2023-06-14T06:46:05;3.43;;;3.13;;
16524;SDS011;8375;33.594;-117.718;2023-06-14T06:48:34;4.90;;;3.03;;
16524;SDS011;8375;33.594;-117.718;2023-06-14T06:51:03;3.17;;;2.87;;
16524;SDS011;8375;33.594;-117.718;2023-06-14T06:53:32;4.73;;;2.80;;
16524;SDS011;8375;33.594;-117.718;2023-06-14T06:56:00;3.13;;;2.87;;
16524;SDS011;8375;33.594;-117.718;2023-06-14T06:58:31;5.23;;;3.03;;
16524;SDS011;8375;33.594;-117.718;2023-06-14T07:01:00;4.73;;;2.97;;
16524;SDS011;8375;33.594;-117.718;2023-06-14T07:03:29;2.90;;;2.47;;
16524;SDS011;8375;33.594;-117.718;2023-06-14T07:05:57;3.90;;;2.87;;
16524;SDS011;8375;33.594;-117.718;2023-06-14T07:08:26;4.40;;;3.10;;
16524;SDS011;8375;33.594;-117.718;2023-06-14T07:10:55;5.00;;;3.07;;
16524;SDS011;8375;33.594;-117.718;2023-06-14T07:13:24;5.33;;;3.07;;
16524;SDS011;8375;33.594;-117.718;2023-06-14T07:15:57;4.70;;;3.27;;
16524;SDS011;8375;33.594;-117.718;2023-06-14T07:18:26;4.63;;;3.37;;
16524;SDS011;8375;33.594;-117.718;2023-06-14T07:20:56;4.73;;;3.03;;
16524;SDS011;8375;33.594;-117.718;2023-06-14T07:23:25;3.57;;;3.27;;
16524;SDS011;8375;33.594;-117.718;2023-06-14T07:25:54;3.67;;;3.20;;
16524;SDS011;8375;33.594;-117.718;2023-06-14T07:28:22;3.83;;;3.30;;
16524;SDS011;8375;33.594;-117.718;2023-06-14T07:30:52;4.80;;;3.40;;
16524;SDS011;8375;33.594;-117.718;2023-06-14T07:33:22;4.07;;;3.23;;
16524;SDS011;8375;33.594;-117.718;2023-06-14T07:35:51;4.30;;;3.00;;
16524;SDS011;8375;33.594;-117.718;2023-06-14T07:38:20;3.97;;;2.80;;
16524;SDS011;8375;33.594;-117.718;2023-06-14T07:40:49;4.27;;;3.13;;
16524;SDS011;8375;33.594;-117.718;2023-06-14T07:43:18;5.70;;;3.57;;
16524;SDS011;8375;33.594;-117.718;2023-06-14T07:45:47;4.07;;;3.23;;
16524;SDS011;8375;33.594;-117.718;2023-06-14T07:48:15;4.43;;;3.17;;
16524;SDS011;8375;33.594;-117.718;2023-06-14T07:50:46;4.53;;;3.43;;
16524;SDS011;8375;33.594;-117.718;2023-06-14T07:53:14;5.47;;;3.37;;
16524;SDS011;8375;33.594;-117.718;2023-06-14T07:55:43;5.17;;;3.10;;
16524;SDS011;8375;33.594;-117.718;2023-06-14T07:58:13;5.60;;;3.77;;
16524;SDS011;8375;33.594;-117.718;2023-06-14T08:00:41;4.50;;;3.53;;
16524;SDS011;8375;33.594;-117.718;2023-06-14T08:03:10;4.10;;;3.20;;
16524;SDS011;8375;33.594;-117.718;2023-06-14T08:05:39;4.10;;;3.60;;
16524;SDS011;8375;33.594;-117.718;2023-06-14T08:08:10;4.83;;;3.70;;
16524;SDS011;8375;33.594;-117.718;2023-06-14T08:10:39;5.30;;;3.40;;
16524;SDS011;8375;33.594;-117.718;2023-06-14T08:13:08;4.60;;;3.70;;
16524;SDS011;8375;33.594;-117.718;2023-06-14T08:15:38;5.63;;;3.57;;
16524;SDS011;8375;33.594;-117.718;2023-06-14T08:18:07;4.47;;;3.50;;
16524;SDS011;8375;33.594;-117.718;2023-06-14T08:20:39;4.57;;;3.93;;
16524;SDS011;8375;33.594;-117.718;2023-06-14T08:23:08;5.73;;;3.63;;
16524;SDS011;8375;33.594;-117.718;2023-06-14T08:25:39;5.67;;;4.07;;
16524;SDS011;8375;33.594;-117.718;2023-06-14T08:28:08;4.73;;;3.47;;
16524;SDS011;8375;33.594;-117.718;2023-06-14T08:30:37;5.73;;;3.70;;
16524;SDS011;8375;33.594;-117.718;2023-06-14T08:33:06;4.00;;;3.60;;
16524;SDS011;8375;33.594;-117.718;2023-06-14T08:35:37;5.07;;;3.90;;
16524;SDS011;8375;33.594;-117.718;2023-06-14T08:38:06;4.70;;;4.20;;
16524;SDS011;8375;33.594;-117.718;2023-06-14T08:40:38;6.20;;;3.63;;
16524;SDS011;8375;33.594;-117.718;2023-06-14T08:43:07;6.73;;;3.60;;
16524;SDS011;8375;33.594;-117.718;2023-06-14T08:45:37;4.87;;;4.20;;
16524;SDS011;8375;33.594;-117.718;2023-06-14T08:48:06;6.20;;;4.47;;
16524;SDS011;8375;33.594;-117.718;2023-06-14T08:50:36;7.47;;;4.43;;
16524;SDS011;8375;33.594;-117.718;2023-06-14T08:53:08;7.67;;;3.90;;
16524;SDS011;8375;33.594;-117.718;2023-06-14T08:55:44;8.83;;;4.10;;
16524;SDS011;8375;33.594;-117.718;2023-06-14T08:58:14;6.20;;;3.97;;
16524;SDS011;8375;33.594;-117.718;2023-06-14T09:00:43;4.47;;;3.67;;
16524;SDS011;8375;33.594;-117.718;2023-06-14T09:03:12;8.10;;;3.60;;
16524;SDS011;8375;33.594;-117.718;2023-06-14T09:05:42;5.00;;;3.70;;
16524;SDS011;8375;33.594;-117.718;2023-06-14T09:08:11;5.30;;;3.50;;
16524;SDS011;8375;33.594;-117.718;2023-06-14T09:10:40;6.70;;;3.83;;
16524;SDS011;8375;33.594;-117.718;2023-06-14T09:13:11;6.63;;;4.03;;
16524;SDS011;8375;33.594;-117.718;2023-06-14T09:15:40;4.80;;;4.07;;
16524;SDS011;8375;33.594;-117.718;2023-06-14T09:18:09;6.53;;;4.50;;
16524;SDS011;8375;33.594;-117.718;2023-06-14T09:20:38;5.10;;;3.87;;
16524;SDS011;8375;33.594;-117.718;2023-06-14T09:23:10;7.03;;;3.73;;
16524;SDS011;8375;33.594;-117.718;2023-06-14T09:25:42;6.03;;;4.73;;
16524;SDS011;8375;33.594;-117.718;2023-06-14T09:28:13;5.07;;;4.00;;
16524;SDS011;8375;33.594;-117.718;2023-06-14T09:30:41;4.83;;;4.00;;
16524;SDS011;8375;33.594;-117.718;2023-06-14T09:33:10;5.87;;;4.30;;
16524;SDS011;8375;33.594;-117.718;2023-06-14T09:35:45;8.30;;;4.73;;
16524;SDS011;8375;33.594;-117.718;2023-06-14T09:38:14;6.23;;;4.37;;
16524;SDS011;8375;33.594;-117.718;2023-06-14T09:40:42;5.43;;;4.50;;
16524;SDS011;8375;33.594;-117.718;2023-06-14T09:43:12;7.50;;;4.37;;
16524;SDS011;8375;33.594;-117.718;2023-06-14T09:45:41;7.83;;;4.40;;
16524;SDS011;8375;33.594;-117.718;2023-06-14T09:48:13;6.53;;;4.13;;
16524;SDS011;8375;33.594;-117.718;2023-06-14T09:50:45;5.63;;;4.37;;
16524;SDS011;8375;33.594;-117.718;2023-06-14T09:53:14;5.83;;;4.33;;
16524;SDS011;8375;33.594;-117.718;2023-06-14T09:55:48;8.10;;;3.63;;
16524;SDS011;8375;33.594;-117.718;2023-06-14T09:58:21;7.90;;;3.90;;
16524;SDS011;8375;33.594;-117.718;2023-06-14T10:00:53;5.57;;;3.77;;
16524;SDS011;8375;33.594;-117.718;2023-06-14T10:03:25;4.70;;;4.20;;
16524;SDS011;8375;33.594;-117.718;2023-06-14T10:05:57;6.50;;;4.63;;
16524;SDS011;8375;33.594;-117.718;2023-06-14T10:08:30;4.63;;;4.23;;
16524;SDS011;8375;33.594;-117.718;2023-06-14T10:11:01;5.23;;;4.43;;
16524;SDS011;8375;33.594;-117.718;2023-06-14T10:13:34;5.57;;;4.40;;
16524;SDS011;8375;33.594;-117.718;2023-06-14T10:16:05;7.67;;;5.70;;
16524;SDS011;8375;33.594;-117.718;2023-06-14T10:18:40;8.30;;;6.43;;
16524;SDS011;8375;33.594;-117.718;2023-06-14T10:21:22;7.33;;;6.63;;
16524;SDS011;8375;33.594;-117.718;2023-06-14T10:23:56;8.67;;;7.40;;
16524;SDS011;8375;33.594;-117.718;2023-06-14T10:26:29;8.27;;;7.43;;
16524;SDS011;8375;33.594;-117.718;2023-06-14T10:29:00;9.67;;;8.40;;
16524;SDS011;8375;33.594;-117.718;2023-06-14T10:31:43;10.50;;;7.57;;
16524;SDS011;8375;33.594;-117.718;2023-06-14T10:34:12;11.30;;;8.40;;
16524;SDS011;8375;33.594;-117.718;2023-06-14T10:37:03;11.37;;;7.90;;
16524;SDS011;8375;33.594;-117.718;2023-06-14T10:39:37;10.30;;;7.73;;
16524;SDS011;8375;33.594;-117.718;2023-06-14T10:42:08;10.43;;;8.07;;
16524;SDS011;8375;33.594;-117.718;2023-06-14T10:44:42;10.80;;;8.60;;
16524;SDS011;8375;33.594;-117.718;2023-06-14T10:47:20;10.40;;;7.83;;
16524;SDS011;8375;33.594;-117.718;2023-06-14T10:49:54;9.43;;;7.90;;
16524;SDS011;8375;33.594;-117.718;2023-06-14T10:52:25;12.23;;;7.60;;
16524;SDS011;8375;33.594;-117.718;2023-06-14T10:55:10;9.37;;;7.90;;
16524;SDS011;8375;33.594;-117.718;2023-06-14T10:57:41;9.50;;;8.50;;
16524;SDS011;8375;33.594;-117.718;2023-06-14T11:00:13;11.60;;;8.30;;
16524;SDS011;8375;33.594;-117.718;2023-06-14T11:02:51;16.13;;;10.50;;
16524;SDS011;8375;33.594;-117.718;2023-06-14T11:05:40;14.50;;;8.73;;
16524;SDS011;8375;33.594;-117.718;2023-06-14T11:11:21;10.30;;;8.77;;
16524;SDS011;8375;33.594;-117.718;2023-06-14T11:13:51;13.63;;;9.00;;
16524;SDS011;8375;33.594;-117.718;2023-06-14T11:16:21;16.10;;;12.10;;
16524;SDS011;8375;33.594;-117.718;2023-06-14T11:18:54;20.33;;;13.17;;
16524;SDS011;8375;33.594;-117.718;2023-06-14T11:21:24;12.33;;;10.40;;
16524;SDS011;8375;33.594;-117.718;2023-06-14T11:23:56;12.10;;;9.73;;
16524;SDS011;8375;33.594;-117.718;2023-06-14T11:26:25;11.60;;;9.67;;
16524;SDS011;8375;33.594;-117.718;2023-06-14T11:28:56;12.67;;;9.70;;
16524;SDS011;8375;33.594;-117.718;2023-06-14T11:31:27;13.47;;;9.50;;
16524;SDS011;8375;33.594;-117.718;2023-06-14T11:33:56;17.50;;;11.23;;
16524;SDS011;8375;33.594;-117.718;2023-06-14T11:36:26;15.33;;;11.00;;
16524;SDS011;8375;33.594;-117.718;2023-06-14T11:38:59;17.53;;;12.67;;
16524;SDS011;8375;33.594;-117.718;2023-06-14T11:41:36;17.40;;;14.10;;
16524;SDS011;8375;33.594;-117.718;2023-06-14T11:44:06;19.80;;;14.83;;
16524;SDS011;8375;33.594;-117.718;2023-06-14T11:46:36;19.17;;;14.00;;
16524;SDS011;8375;33.594;-117.718;2023-06-14T11:49:06;17.37;;;12.97;;
16524;SDS011;8375;33.594;-117.718;2023-06-14T11:51:35;16.53;;;13.53;;
16524;SDS011;8375;33.594;-117.718;2023-06-14T11:54:05;14.73;;;12.07;;
16524;SDS011;8375;33.594;-117.718;2023-06-14T11:56:36;16.63;;;12.57;;
16524;SDS011;8375;33.594;-117.718;2023-06-14T11:59:05;14.67;;;11.20;;
16524;SDS011;8375;33.594;-117.718;2023-06-14T12:01:37;11.73;;;10.10;;
16524;SDS011;8375;33.594;-117.718;2023-06-14T12:04:06;14.37;;;9.83;;
16524;SDS011;8375;33.594;-117.718;2023-06-14T12:06:34;14.13;;;9.37;;
16524;SDS011;8375;33.594;-117.718;2023-06-14T12:09:05;11.60;;;9.13;;
16524;SDS011;8375;33.594;-117.718;2023-06-14T12:11:39;14.00;;;10.97;;
16524;SDS011;8375;33.594;-117.718;2023-06-14T12:14:08;11.33;;;9.87;;
16524;SDS011;8375;33.594;-117.718;2023-06-14T12:16:39;14.90;;;12.10;;
16524;SDS011;8375;33.594;-117.718;2023-06-14T12:19:09;17.37;;;13.03;;
16524;SDS011;8375;33.594;-117.718;2023-06-14T12:21:40;22.17;;;15.43;;
16524;SDS011;8375;33.594;-117.718;2023-06-14T12:24:09;17.83;;;14.63;;
16524;SDS011;8375;33.594;-117.718;2023-06-14T12:26:40;19.73;;;14.60;;
16524;SDS011;8375;33.594;-117.718;2023-06-14T12:29:09;47.37;;;20.20;;
16524;SDS011;8375;33.594;-117.718;2023-06-14T12:31:40;19.80;;;15.50;;
16524;SDS011;8375;33.594;-117.718;2023-06-14T12:34:09;22.20;;;15.77;;
16524;SDS011;8375;33.594;-117.718;2023-06-14T12:36:38;22.50;;;15.03;;
16524;SDS011;8375;33.594;-117.718;2023-06-14T12:39:10;20.13;;;14.87;;
16524;SDS011;8375;33.594;-117.718;2023-06-14T12:41:40;23.50;;;16.37;;
16524;SDS011;8375;33.594;-117.718;2023-06-14T12:44:09;22.57;;;16.23;;
16524;SDS011;8375;33.594;-117.718;2023-06-14T12:46:40;23.87;;;15.40;;
16524;SDS011;8375;33.594;-117.718;2023-06-14T12:49:09;20.70;;;15.57;;
16524;SDS011;8375;33.594;-117.718;2023-06-14T12:51:38;20.70;;;14.63;;
16524;SDS011;8375;33.594;-117.718;2023-06-14T12:54:07;22.37;;;15.90;;
16524;SDS011;8375;33.594;-117.718;2023-06-14T12:56:36;19.63;;;14.53;;
16524;SDS011;8375;33.594;-117.718;2023-06-14T12:59:07;21.13;;;15.47;;
16524;SDS011;8375;33.594;-117.718;2023-06-14T13:01:37;19.40;;;14.60;;
16524;SDS011;8375;33.594;-117.718;2023-06-14T13:04:07;19.47;;;14.63;;
16524;SDS011;8375;33.594;-117.718;2023-06-14T13:06:36;19.73;;;15.50;;
16524;SDS011;8375;33.594;-117.718;2023-06-14T13:09:05;21.30;;;14.47;;
16524;SDS011;8375;33.594;-117.718;2023-06-14T13:11:33;16.83;;;14.03;;
16524;SDS011;8375;33.594;-117.718;2023-06-14T13:14:05;19.17;;;13.73;;
16524;SDS011;8375;33.594;-117.718;2023-06-14T13:16:33;17.93;;;13.40;;
16524;SDS011;8375;33.594;-117.718;2023-06-14T13:19:04;17.20;;;13.47;;
16524;SDS011;8375;33.594;-117.718;2023-06-14T13:21:32;18.73;;;14.73;;
16524;SDS011;8375;33.594;-117.718;2023-06-14T13:24:01;19.27;;;13.93;;
16524;SDS011;8375;33.594;-117.718;2023-06-14T13:26:30;18.93;;;13.80;;
16524;SDS011;8375;33.594;-117.718;2023-06-14T13:28:58;16.97;;;13.40;;
16524;SDS011;8375;33.594;-117.718;2023-06-14T13:31:27;18.13;;;13.37;;
16524;SDS011;8375;33.594;-117.718;2023-06-14T13:33:56;19.53;;;14.73;;
16524;SDS011;8375;33.594;-117.718;2023-06-14T13:36:26;18.30;;;14.50;;
16524;SDS011;8375;33.594;-117.718;2023-06-14T13:38:55;17.93;;;14.00;;
16524;SDS011;8375;33.594;-117.718;2023-06-14T13:41:25;21.40;;;15.07;;
16524;SDS011;8375;33.594;-117.718;2023-06-14T13:43:57;19.07;;;14.30;;
16524;SDS011;8375;33.594;-117.718;2023-06-14T13:46:26;20.10;;;13.23;;
16524;SDS011;8375;33.594;-117.718;2023-06-14T13:48:55;19.83;;;14.27;;
16524;SDS011;8375;33.594;-117.718;2023-06-14T13:51:23;20.67;;;13.90;;
16524;SDS011;8375;33.594;-117.718;2023-06-14T13:53:54;15.97;;;13.03;;
16524;SDS011;8375;33.594;-117.718;2023-06-14T13:56:23;18.37;;;14.27;;
16524;SDS011;8375;33.594;-117.718;2023-06-14T13:58:51;17.07;;;12.63;;
16524;SDS011;8375;33.594;-117.718;2023-06-14T14:01:20;21.53;;;14.83;;
16524;SDS011;8375;33.594;-117.718;2023-06-14T14:03:49;19.97;;;13.47;;
16524;SDS011;8375;33.594;-117.718;2023-06-14T14:06:18;19.03;;;13.80;;
16524;SDS011;8375;33.594;-117.718;2023-06-14T14:08:48;19.37;;;13.47;;
16524;SDS011;8375;33.594;-117.718;2023-06-14T14:11:18;18.40;;;12.57;;
16524;SDS011;8375;33.594;-117.718;2023-06-14T14:13:46;21.30;;;14.40;;
16524;SDS011;8375;33.594;-117.718;2023-06-14T14:16:15;20.03;;;13.53;;
16524;SDS011;8375;33.594;-117.718;2023-06-14T14:18:45;19.23;;;13.77;;
16524;SDS011;8375;33.594;-117.718;2023-06-14T14:21:14;19.07;;;14.43;;
16524;SDS011;8375;33.594;-117.718;2023-06-14T14:23:42;20.10;;;14.43;;
16524;SDS011;8375;33.594;-117.718;2023-06-14T14:26:12;15.13;;;11.67;;
16524;SDS011;8375;33.594;-117.718;2023-06-14T14:28:41;20.70;;;14.20;;
16524;SDS011;8375;33.594;-117.718;2023-06-14T14:31:10;18.87;;;14.37;;
16524;SDS011;8375;33.594;-117.718;2023-06-14T14:33:39;22.40;;;14.67;;
16524;SDS011;8375;33.594;-117.718;2023-06-14T14:36:07;19.10;;;13.03;;